This is the latest recevied weather packets stored in our database for station/object YO8RXT-3. If no packets are shown the sender has not sent any weather packets the latest 10 day(s).
| Time | Temp. | Humidity | Pressure | Rain* | Wind** | Luminosity | Snow |
|---|---|---|---|---|---|---|---|
| 1777687503 | 7.22° C | 71% | 1023 hPa | - | - | - | - |
| 1777685702 | 7.22° C | 71% | 1023 hPa | - | - | - | - |
| 1777683903 | 7.22° C | 71% | 1023 hPa | - | - | - | - |
| 1777682103 | 7.22° C | 71% | 1023 hPa | - | - | - | - |
| 1777680302 | 7.22° C | 71% | 1023 hPa | - | - | - | - |
| 1777678502 | 7.78° C | 66% | 1023 hPa | - | - | - | - |
| 1777676703 | 7.78° C | 66% | 1023 hPa | - | - | - | - |
| 1777674903 | 7.22° C | 76% | 1024 hPa | - | - | - | - |
| 1777673102 | 8.89° C | 62% | 1024 hPa | - | - | - | - |
| 1777671304 | 8.89° C | 66% | 1024 hPa | - | - | - | - |
| 1777669503 | 10° C | 58% | 1024 hPa | - | - | - | - |
| 1777667702 | 10° C | 58% | 1024 hPa | - | - | - | - |
| 1777665903 | 10° C | 54% | 1024 hPa | - | - | - | - |
| 1777664103 | 10° C | 50% | 1024 hPa | - | - | - | - |
| 1777662303 | 11.11° C | 47% | 1023 hPa | - | - | - | - |
| 1777660503 | 10° C | 47% | 1023 hPa | - | - | - | - |
| 1777658703 | 11.11° C | - | - | - | - | - | - |
| 1777656903 | 11.11° C | 38% | 1023 hPa | - | - | - | - |
| 1777655103 | 11.11° C | 38% | 1023 hPa | - | - | - | - |
| 1777653303 | 12.22° C | 35% | 1023 hPa | - | - | - | - |
| 1777651503 | 12.22° C | 33% | 1023 hPa | - | - | - | - |
| 1777649703 | 12.22° C | 33% | 1023 hPa | - | - | - | - |
| 1777647903 | 12.22° C | 30% | 1023 hPa | - | - | - | - |
| 1777646102 | 12.78° C | 28% | 1023 hPa | - | - | - | - |
| 1777644303 | 12.22° C | 30% | 1024 hPa | - | - | - | - |
* Rain since midnight (hover to see other rain measurements)
** Current wind speed in m/s (hover to see current wind gust speed)